Time;durP1;ratioP1;P1;durP2;ratioP2;P2;SDS_P1;SDS_P2;PMS_P1;PMS_P2;Temp;Humidity;BMP_temperature;BMP_pressure;BME280_temperature;BME280_humidity;BME280_pressure;Samples;Min_cycle;Max_cycle;Signal;HPM_P1;HPM_P2
2022/10/27 00:01:30;;;;;;;4.43;2.20;;;15.50;99.90;;;;;;5093113;28;20601;-37
2022/10/27 00:03:55;;;;;;;4.63;2.97;;;15.40;99.90;;;;;;5092621;28;20446;-38
2022/10/27 00:06:21;;;;;;;4.37;2.70;;;15.50;99.90;;;;;;5091890;28;20458;-37
2022/10/27 00:08:49;;;;;;;4.17;2.63;;;15.50;99.90;;;;;;5092553;28;20192;-37
2022/10/27 00:11:14;;;;;;;3.53;2.30;;;15.50;99.90;;;;;;5093056;28;20876;-37
2022/10/27 00:13:40;;;;;;;5.43;2.30;;;15.40;99.90;;;;;;5092538;28;20414;-38
2022/10/27 00:16:10;;;;;;;5.37;2.00;;;15.30;99.90;;;;;;5092876;28;20627;-37
2022/10/27 00:18:36;;;;;;;5.87;2.47;;;15.20;99.90;;;;;;5092420;28;20234;-37
2022/10/27 00:21:10;;;;;;;6.13;2.33;;;15.20;99.90;;;;;;5092874;28;20465;-37
2022/10/27 00:23:37;;;;;;;4.83;2.30;;;15.10;99.90;;;;;;5092369;28;20768;-38
2022/10/27 00:26:03;;;;;;;2.83;2.20;;;15.20;99.90;;;;;;5092805;28;20912;-37
2022/10/27 00:28:29;;;;;;;2.57;2.00;;;15.20;99.90;;;;;;5092428;28;20428;-39
2022/10/27 00:31:24;;;;;;;4.33;2.17;;;15.30;99.90;;;;;;5092227;28;20830;-37
2022/10/27 00:33:50;;;;;;;5.70;2.40;;;15.20;99.90;;;;;;5074821;28;20492;-36
2022/10/27 00:36:22;;;;;;;2.57;2.07;;;15.20;99.90;;;;;;5092602;28;20422;-37
2022/10/27 00:38:48;;;;;;;8.80;2.50;;;15.20;99.90;;;;;;5092131;28;20472;-38
2022/10/27 00:41:36;;;;;;;5.83;2.53;;;15.20;99.90;;;;;;5092218;28;20414;-38
2022/10/27 00:44:30;;;;;;;2.20;1.97;;;15.30;99.90;;;;;;5092120;28;20433;-38
2022/10/27 00:47:20;;;;;;;5.00;2.50;;;15.40;99.90;;;;;;5091070;28;20418;-37
2022/10/27 00:49:54;;;;;;;4.13;2.80;;;15.40;99.90;;;;;;5080601;28;20764;-37
2022/10/27 00:52:33;;;;;;;7.17;2.60;;;15.30;99.90;;;;;;5092048;28;20417;-36
2022/10/27 00:55:04;;;;;;;3.80;2.10;;;15.30;99.90;;;;;;5090054;28;20398;-37
2022/10/27 00:57:32;;;;;;;4.93;2.37;;;15.30;99.90;;;;;;5092093;28;20901;-37
2022/10/27 00:59:59;;;;;;;4.23;2.27;;;15.30;99.90;;;;;;5091473;28;20509;-37
2022/10/27 01:02:25;;;;;;;4.53;2.30;;;15.20;99.90;;;;;;5091836;28;20414;-37
2022/10/27 01:05:11;;;;;;;4.03;2.50;;;15.10;99.90;;;;;;5090955;28;20746;-38
2022/10/27 01:07:38;;;;;;;4.93;2.53;;;15.20;99.90;;;;;;5091665;28;20184;-37
2022/10/27 01:10:04;;;;;;;4.00;2.60;;;15.10;99.90;;;;;;5091562;28;21041;-37
2022/10/27 01:12:31;;;;;;;7.00;2.50;;;15.10;99.90;;;;;;5091354;28;20411;-37
2022/10/27 01:14:56;;;;;;;4.73;2.40;;;15.10;99.90;;;;;;5091713;28;20445;-37
2022/10/27 01:17:47;;;;;;;4.23;2.77;;;15.10;99.90;;;;;;5091624;28;20438;-37
2022/10/27 01:20:19;;;;;;;2.90;2.20;;;15.10;99.90;;;;;;5091456;28;20187;-36
2022/10/27 01:23:09;;;;;;;5.20;2.50;;;15.00;99.90;;;;;;5091181;28;20410;-38
2022/10/27 01:25:49;;;;;;;5.80;2.60;;;15.00;99.90;;;;;;5091661;28;20418;-40
2022/10/27 01:28:41;;;;;;;4.77;2.47;;;14.90;99.90;;;;;;5091448;28;20463;-37
2022/10/27 01:31:19;;;;;;;5.03;2.70;;;14.90;99.90;;;;;;5091318;28;20450;-37
2022/10/27 01:34:01;;;;;;;3.07;2.07;;;15.00;99.90;;;;;;5090054;28;20422;-37
2022/10/27 01:36:36;;;;;;;4.40;2.87;;;15.00;99.90;;;;;;5091444;28;20402;-37
2022/10/27 01:39:26;;;;;;;4.00;2.37;;;15.00;99.90;;;;;;5090898;28;20422;-37
2022/10/27 01:42:25;;;;;;;4.07;1.80;;;15.00;99.90;;;;;;5091101;28;20410;-37
2022/10/27 01:44:56;;;;;;;4.10;1.90;;;15.00;99.90;;;;;;5091189;28;21152;-36
2022/10/27 01:47:23;;;;;;;9.70;2.53;;;15.00;99.90;;;;;;5091139;28;20518;-37
2022/10/27 01:49:51;;;;;;;6.57;2.60;;;15.00;99.90;;;;;;5090685;28;20414;-37
2022/10/27 01:52:38;;;;;;;3.70;2.57;;;14.90;99.90;;;;;;5091067;28;20419;-37
2022/10/27 01:55:05;;;;;;;4.60;2.30;;;14.90;99.90;;;;;;5088937;28;20426;-37
2022/10/27 01:58:10;;;;;;;3.80;2.40;;;14.90;99.90;;;;;;5090758;28;20421;-38
2022/10/27 02:00:51;;;;;;;5.40;2.17;;;14.90;99.90;;;;;;5090603;28;20501;-37
2022/10/27 02:03:20;;;;;;;5.43;2.40;;;14.90;99.90;;;;;;5090552;28;20954;-37
2022/10/27 02:05:57;;;;;;;4.23;2.83;;;14.80;99.90;;;;;;5090895;28;20550;-37
2022/10/27 02:08:38;;;;;;;3.40;2.10;;;14.80;99.90;;;;;;5088824;28;21084;-37
2022/10/27 02:11:06;;;;;;;3.20;2.23;;;14.90;99.90;;;;;;5090782;28;20450;-37
2022/10/27 02:13:36;;;;;;;4.13;2.37;;;14.90;99.90;;;;;;5090364;28;20771;-37
2022/10/27 02:16:10;;;;;;;3.63;2.40;;;14.80;99.90;;;;;;5090511;28;20410;-37
2022/10/27 02:18:43;;;;;;;3.47;2.20;;;14.80;99.90;;;;;;5090159;28;20753;-38
2022/10/27 02:21:11;;;;;;;6.73;2.50;;;14.80;99.90;;;;;;5090351;28;20986;-37
2022/10/27 02:23:37;;;;;;;4.83;2.67;;;14.80;99.90;;;;;;5090082;28;20430;-37
2022/10/27 02:26:13;;;;;;;6.00;2.63;;;14.80;99.90;;;;;;5090541;28;20413;-37
2022/10/27 02:28:48;;;;;;;7.20;3.10;;;14.80;99.90;;;;;;5088805;28;20445;-37
2022/10/27 02:31:16;;;;;;;4.63;2.87;;;14.80;99.90;;;;;;5089126;28;20994;-37
2022/10/27 02:33:42;;;;;;;6.17;2.93;;;14.80;99.90;;;;;;5089934;28;20465;-37
2022/10/27 02:36:08;;;;;;;3.00;2.70;;;14.80;99.90;;;;;;5090291;28;20424;-37
2022/10/27 02:38:34;;;;;;;5.20;2.70;;;14.80;99.90;;;;;;5089932;28;20418;-37
2022/10/27 02:40:59;;;;;;;3.40;2.20;;;14.80;99.90;;;;;;5090260;28;20188;-37
2022/10/27 02:43:25;;;;;;;2.47;2.27;;;14.80;99.90;;;;;;5089978;28;20233;-37
2022/10/27 02:45:50;;;;;;;7.13;2.43;;;14.80;99.90;;;;;;5090063;28;20189;-37
2022/10/27 02:48:16;;;;;;;3.43;2.50;;;14.80;99.90;;;;;;5090104;28;20234;-37
2022/10/27 02:50:41;;;;;;;7.23;3.03;;;14.80;99.90;;;;;;5089681;28;20212;-37
2022/10/27 02:53:07;;;;;;;3.80;2.37;;;14.70;99.90;;;;;;5089827;28;20188;-36
2022/10/27 02:55:33;;;;;;;4.47;2.50;;;14.80;99.90;;;;;;5089100;28;20241;-36
2022/10/27 02:57:58;;;;;;;3.50;2.00;;;14.80;99.90;;;;;;5090212;28;20187;-37
2022/10/27 03:00:24;;;;;;;5.23;3.30;;;14.80;99.90;;;;;;5089650;28;20214;-37
2022/10/27 03:02:50;;;;;;;5.33;2.10;;;14.80;99.90;;;;;;5089532;28;20177;-37
2022/10/27 03:05:15;;;;;;;6.03;2.30;;;14.80;99.90;;;;;;5090088;28;20765;-36
2022/10/27 03:07:43;;;;;;;5.13;2.50;;;14.80;99.90;;;;;;5071778;28;20207;-37
2022/10/27 03:10:09;;;;;;;3.00;1.83;;;14.90;99.90;;;;;;5088234;28;20208;-37
2022/10/27 03:12:35;;;;;;;2.30;1.87;;;14.90;99.90;;;;;;5089450;28;20540;-37
2022/10/27 03:15:00;;;;;;;4.13;2.50;;;14.80;99.90;;;;;;5089809;28;20245;-39
2022/10/27 03:17:26;;;;;;;8.90;1.90;;;14.80;99.90;;;;;;5088266;28;20486;-39
2022/10/27 03:19:51;;;;;;;5.87;2.50;;;14.70;99.90;;;;;;5089662;28;20168;-40
2022/10/27 03:22:17;;;;;;;3.20;1.80;;;14.70;99.90;;;;;;5089761;28;20524;-39
2022/10/27 03:24:43;;;;;;;5.60;2.00;;;14.70;99.90;;;;;;5089911;28;20187;-39
2022/10/27 03:27:08;;;;;;;4.63;1.90;;;14.70;99.90;;;;;;5091378;28;20173;-40
2022/10/27 03:29:34;;;;;;;5.00;1.80;;;14.70;99.90;;;;;;5093776;28;20168;-39
2022/10/27 03:31:59;;;;;;;2.83;2.03;;;14.70;99.90;;;;;;5093527;28;20306;-39
2022/10/27 03:34:25;;;;;;;4.83;1.80;;;14.70;99.90;;;;;;5092125;28;20204;-39
2022/10/27 03:36:51;;;;;;;3.23;2.20;;;14.70;99.90;;;;;;5093687;28;20653;-40
2022/10/27 03:39:16;;;;;;;2.90;2.27;;;14.70;99.90;;;;;;5093410;28;20179;-39
2022/10/27 03:41:42;;;;;;;2.43;1.50;;;14.70;99.90;;;;;;5093424;28;20641;-40
2022/10/27 03:44:08;;;;;;;4.00;2.10;;;14.70;99.90;;;;;;5093441;28;20563;-39
2022/10/27 03:46:33;;;;;;;4.20;2.23;;;14.70;99.90;;;;;;5092223;28;20184;-39
2022/10/27 03:48:59;;;;;;;2.93;2.20;;;14.80;99.90;;;;;;5093015;28;20222;-39
2022/10/27 03:51:25;;;;;;;2.80;1.97;;;14.80;99.90;;;;;;5093437;28;20212;-40
2022/10/27 03:53:50;;;;;;;4.23;1.70;;;14.80;99.90;;;;;;5092958;28;20185;-39
2022/10/27 03:56:16;;;;;;;5.60;2.13;;;14.90;99.90;;;;;;5092116;28;20610;-38
2022/10/27 03:58:41;;;;;;;6.13;1.70;;;14.80;99.90;;;;;;5092775;28;20669;-38
2022/10/27 04:01:10;;;;;;;2.37;2.17;;;14.80;99.90;;;;;;5093030;28;20220;-39
2022/10/27 04:03:35;;;;;;;4.13;2.13;;;14.80;99.90;;;;;;5091570;28;20230;-39
2022/10/27 04:06:01;;;;;;;1.80;1.50;;;14.80;99.90;;;;;;5093016;28;20458;-39
2022/10/27 04:08:27;;;;;;;3.13;1.60;;;14.90;99.90;;;;;;5092596;28;20180;-39
2022/10/27 04:10:52;;;;;;;2.20;1.73;;;14.80;99.90;;;;;;5093010;28;20211;-39
2022/10/27 04:13:18;;;;;;;4.53;1.90;;;14.80;99.90;;;;;;5092385;28;20233;-39
2022/10/27 04:15:43;;;;;;;3.67;1.77;;;14.90;99.90;;;;;;5092820;28;20260;-39
2022/10/27 04:18:10;;;;;;;2.77;2.10;;;14.90;99.90;;;;;;5092922;28;20177;-39
2022/10/27 04:20:35;;;;;;;2.90;1.70;;;14.90;99.90;;;;;;5092422;28;20192;-39
2022/10/27 04:23:01;;;;;;;2.47;1.93;;;14.90;99.90;;;;;;5092549;28;20411;-39
2022/10/27 04:25:27;;;;;;;3.10;1.50;;;14.90;99.90;;;;;;5092801;28;20230;-39
2022/10/27 04:28:04;;;;;;;3.20;1.63;;;14.90;99.90;;;;;;5092619;28;20917;-39
2022/10/27 04:30:30;;;;;;;3.03;1.67;;;14.90;99.90;;;;;;5091829;28;20211;-39
2022/10/27 04:32:55;;;;;;;3.13;1.70;;;14.80;99.90;;;;;;5092333;28;20889;-39
2022/10/27 04:35:21;;;;;;;7.63;1.90;;;14.70;99.90;;;;;;5092580;28;20196;-37
2022/10/27 04:37:47;;;;;;;1.90;1.57;;;14.70;99.90;;;;;;5092520;28;20380;-37
2022/10/27 04:40:12;;;;;;;1.53;1.40;;;14.60;99.90;;;;;;5092132;28;20535;-37
2022/10/27 04:42:44;;;;;;;3.23;1.37;;;14.60;99.90;;;;;;5090865;28;20184;-38
2022/10/27 04:45:10;;;;;;;4.80;1.87;;;14.60;99.90;;;;;;5092265;28;20180;-37
2022/10/27 04:47:35;;;;;;;4.37;1.93;;;14.60;99.90;;;;;;5092329;28;21136;-37
2022/10/27 04:50:01;;;;;;;6.50;1.90;;;14.50;99.90;;;;;;5092029;28;20180;-37
2022/10/27 04:52:27;;;;;;;2.10;1.43;;;14.50;99.90;;;;;;5092045;28;20189;-37
2022/10/27 04:54:52;;;;;;;4.23;1.67;;;14.40;99.90;;;;;;5091740;28;20176;-37
2022/10/27 04:57:18;;;;;;;2.13;1.50;;;14.40;99.90;;;;;;5089361;28;20236;-37
2022/10/27 04:59:43;;;;;;;4.83;1.87;;;14.40;99.90;;;;;;5091616;28;20176;-37
2022/10/27 05:02:09;;;;;;;2.03;1.40;;;14.40;99.90;;;;;;5092101;28;20783;-37
2022/10/27 05:04:35;;;;;;;11.43;2.07;;;14.40;99.90;;;;;;5091795;28;20185;-37
2022/10/27 05:07:00;;;;;;;4.53;1.90;;;14.30;99.90;;;;;;5091649;28;20192;-37
2022/10/27 05:09:26;;;;;;;2.97;1.57;;;14.30;99.90;;;;;;5091562;28;20177;-38
2022/10/27 05:11:51;;;;;;;3.83;2.03;;;14.30;99.90;;;;;;5091288;28;20204;-39
2022/10/27 05:14:17;;;;;;;1.83;1.43;;;14.30;99.90;;;;;;5091382;28;20192;-37
2022/10/27 05:16:42;;;;;;;2.90;1.63;;;14.30;99.90;;;;;;5091706;28;20181;-38
2022/10/27 05:19:08;;;;;;;2.20;1.53;;;14.30;99.90;;;;;;5091405;28;20168;-38
2022/10/27 05:21:34;;;;;;;2.50;1.77;;;14.20;99.90;;;;;;5091623;28;20184;-38
2022/10/27 05:23:59;;;;;;;2.80;1.77;;;14.10;99.90;;;;;;5089919;28;20207;-38
2022/10/27 05:26:25;;;;;;;2.60;1.60;;;14.10;99.90;;;;;;5091366;28;20181;-37
2022/10/27 05:28:51;;;;;;;4.20;2.00;;;14.10;99.90;;;;;;5090829;28;20741;-37
2022/10/27 05:31:16;;;;;;;1.90;1.40;;;14.10;99.90;;;;;;5091215;28;20254;-38
2022/10/27 05:33:42;;;;;;;5.90;2.00;;;14.10;99.90;;;;;;5091174;28;20175;-37
2022/10/27 05:36:08;;;;;;;2.63;1.80;;;14.20;99.90;;;;;;5091302;28;20572;-37
2022/10/27 05:38:36;;;;;;;5.50;1.90;;;14.20;99.90;;;;;;5090988;28;20468;-37
2022/10/27 05:41:02;;;;;;;2.50;1.60;;;14.20;99.90;;;;;;5091357;28;20185;-37
2022/10/27 05:43:28;;;;;;;4.30;1.77;;;14.20;99.90;;;;;;5090635;28;20406;-37
2022/10/27 05:45:54;;;;;;;2.30;1.43;;;14.30;99.90;;;;;;5091462;28;20471;-38
2022/10/27 05:48:20;;;;;;;3.10;1.87;;;14.30;99.90;;;;;;5091010;28;20192;-37
2022/10/27 05:50:50;;;;;;;2.50;1.50;;;14.30;99.90;;;;;;5090279;28;20204;-38
2022/10/27 05:53:15;;;;;;;2.80;1.60;;;14.30;99.90;;;;;;5090750;28;20172;-37
2022/10/27 05:55:41;;;;;;;4.50;2.17;;;14.20;99.90;;;;;;5089486;28;20502;-37
2022/10/27 05:58:08;;;;;;;3.73;1.80;;;14.30;99.90;;;;;;5090884;28;20260;-37
2022/10/27 06:00:36;;;;;;;1.67;1.50;;;14.30;99.90;;;;;;5090658;28;20187;-38
2022/10/27 06:03:04;;;;;;;2.07;1.60;;;14.30;99.90;;;;;;5090445;28;20417;-38
2022/10/27 06:05:30;;;;;;;2.40;1.60;;;14.40;99.90;;;;;;5090865;28;20441;-38
2022/10/27 06:07:57;;;;;;;3.83;1.70;;;14.40;99.90;;;;;;5090682;28;20960;-38
2022/10/27 06:10:23;;;;;;;3.87;1.77;;;14.50;99.90;;;;;;5088868;28;20446;-37
2022/10/27 06:12:49;;;;;;;2.10;1.50;;;14.40;99.90;;;;;;5090332;28;20411;-37
2022/10/27 06:15:15;;;;;;;4.93;2.73;;;14.50;99.90;;;;;;5090778;28;20410;-38
2022/10/27 06:17:40;;;;;;;10.97;2.90;;;14.40;99.90;;;;;;5089250;28;20276;-38
2022/10/27 06:20:07;;;;;;;8.30;1.97;;;14.40;99.90;;;;;;5090165;28;20181;-38
2022/10/27 06:22:32;;;;;;;2.60;1.60;;;14.40;99.90;;;;;;5090311;28;20183;-37
2022/10/27 06:24:58;;;;;;;5.17;1.83;;;14.40;99.90;;;;;;5090042;28;20415;-37
2022/10/27 06:27:24;;;;;;;3.40;1.40;;;14.30;99.90;;;;;;5090494;28;20202;-37
2022/10/27 06:29:50;;;;;;;5.87;1.80;;;14.30;99.90;;;;;;5090085;28;20698;-38
2022/10/27 06:32:15;;;;;;;2.73;1.73;;;14.30;99.90;;;;;;5090385;28;20458;-37
2022/10/27 06:34:41;;;;;;;6.57;1.73;;;14.30;99.90;;;;;;5090097;28;20176;-37
2022/10/27 06:37:06;;;;;;;3.10;1.80;;;14.30;99.90;;;;;;5090405;28;20177;-37
2022/10/27 06:39:32;;;;;;;2.40;1.60;;;14.40;99.90;;;;;;5088456;28;20192;-37
2022/10/27 06:41:58;;;;;;;2.47;1.43;;;14.40;99.90;;;;;;5088843;28;20188;-38
2022/10/27 06:44:24;;;;;;;2.87;1.97;;;14.40;99.90;;;;;;5089801;28;20180;-37
2022/10/27 06:46:50;;;;;;;2.90;1.57;;;14.40;99.90;;;;;;5090346;28;20325;-37
2022/10/27 06:49:16;;;;;;;3.67;1.77;;;14.50;99.90;;;;;;5089716;28;20509;-37
2022/10/27 06:51:42;;;;;;;3.10;1.70;;;14.50;99.90;;;;;;5090253;28;20650;-37
2022/10/27 06:54:07;;;;;;;3.77;1.70;;;14.50;99.90;;;;;;5089638;28;20185;-38
2022/10/27 06:56:33;;;;;;;4.47;2.10;;;14.50;99.90;;;;;;5088663;28;20656;-37
2022/10/27 06:58:59;;;;;;;3.00;1.50;;;14.50;99.90;;;;;;5089819;28;20244;-37
2022/10/27 07:01:25;;;;;;;3.50;1.70;;;14.50;99.90;;;;;;5090524;28;20407;-38
2022/10/27 07:03:51;;;;;;;2.17;1.60;;;14.50;99.90;;;;;;5093955;28;20476;-37
2022/10/27 07:06:17;;;;;;;7.70;2.17;;;14.50;99.90;;;;;;5094291;28;20426;-37
2022/10/27 07:08:42;;;;;;;3.90;1.70;;;14.50;99.90;;;;;;5092344;28;20255;-37
2022/10/27 07:11:08;;;;;;;4.57;1.87;;;14.50;99.90;;;;;;5094155;28;20208;-37
2022/10/27 07:13:34;;;;;;;3.63;1.70;;;14.60;99.90;;;;;;5093911;28;20241;-37
2022/10/27 07:16:00;;;;;;;3.23;1.37;;;14.60;99.90;;;;;;5094146;28;20482;-37
2022/10/27 07:18:26;;;;;;;8.17;1.87;;;14.70;99.90;;;;;;5093711;28;20936;-38
2022/10/27 07:20:52;;;;;;;5.00;1.93;;;14.70;99.90;;;;;;5092579;28;20180;-37
2022/10/27 07:23:19;;;;;;;2.73;1.50;;;14.80;99.90;;;;;;5093491;28;20832;-38
2022/10/27 07:25:49;;;;;;;3.70;1.70;;;14.80;99.90;;;;;;5092605;28;20479;-37
2022/10/27 07:28:16;;;;;;;2.67;1.67;;;14.90;99.90;;;;;;5093955;28;20771;-37
2022/10/27 07:30:43;;;;;;;2.43;1.60;;;15.00;99.90;;;;;;5093629;28;20529;-38
2022/10/27 07:33:09;;;;;;;5.93;1.57;;;15.10;99.90;;;;;;5075044;28;20916;-37
2022/10/27 07:35:35;;;;;;;1.37;1.10;;;15.20;99.90;;;;;;5093851;28;20434;-38
2022/10/27 07:38:01;;;;;;;1.93;1.23;;;15.40;99.90;;;;;;5093420;28;20445;-38
2022/10/27 07:40:27;;;;;;;1.90;1.10;;;15.50;99.90;;;;;;5093356;28;20548;-37
2022/10/27 07:42:55;;;;;;;2.93;1.60;;;15.80;99.90;;;;;;5093207;28;20406;-38
2022/10/27 07:45:22;;;;;;;4.80;1.53;;;15.90;99.90;;;;;;5093616;28;20234;-38
2022/10/27 07:47:50;;;;;;;2.30;1.50;;;16.10;99.90;;;;;;5093272;28;20497;-38
2022/10/27 07:50:18;;;;;;;1.20;1.10;;;16.30;99.90;;;;;;5093095;28;20465;-38
2022/10/27 07:52:45;;;;;;;2.90;1.70;;;16.50;99.90;;;;;;5092939;28;20419;-38
2022/10/27 07:55:13;;;;;;;1.70;1.40;;;16.70;99.90;;;;;;5092087;28;20408;-38
2022/10/27 07:57:40;;;;;;;3.27;1.20;;;17.00;99.90;;;;;;5093323;28;20478;-38
2022/10/27 08:00:08;;;;;;;3.37;1.63;;;17.30;99.90;;;;;;5091715;28;20398;-38
2022/10/27 08:02:33;;;;;;;1.53;1.10;;;17.50;99.90;;;;;;5092869;28;20441;-37
2022/10/27 08:04:59;;;;;;;4.17;1.30;;;17.70;99.90;;;;;;5092946;28;20438;-37
2022/10/27 08:07:25;;;;;;;2.10;1.30;;;17.80;99.90;;;;;;5092889;28;20192;-38
2022/10/27 08:09:50;;;;;;;5.70;1.30;;;17.90;99.90;;;;;;5092671;28;20186;-37
2022/10/27 08:12:16;;;;;;;3.10;1.50;;;18.00;99.90;;;;;;5074472;28;20295;-38
2022/10/27 08:14:42;;;;;;;2.77;1.50;;;18.10;99.90;;;;;;5092722;28;20204;-38
2022/10/27 08:17:07;;;;;;;3.10;1.43;;;18.20;99.90;;;;;;5093180;28;20831;-38
2022/10/27 08:19:33;;;;;;;1.53;1.10;;;18.30;99.90;;;;;;5092137;28;20195;-38
2022/10/27 08:21:59;;;;;;;2.30;1.20;;;18.40;99.90;;;;;;5092970;28;20184;-38
2022/10/27 08:24:24;;;;;;;2.80;1.40;;;18.50;99.90;;;;;;5092477;28;20204;-38
2022/10/27 08:26:50;;;;;;;4.20;1.30;;;18.70;99.90;;;;;;5093004;28;20191;-40
2022/10/27 08:29:15;;;;;;;2.90;1.00;;;18.80;99.90;;;;;;5092416;28;20180;-39
2022/10/27 08:31:41;;;;;;;2.97;1.30;;;19.00;99.90;;;;;;5092635;28;20257;-38
2022/10/27 08:34:07;;;;;;;2.93;1.20;;;19.20;99.90;;;;;;5091914;28;20177;-39
2022/10/27 08:36:37;;;;;;;2.40;1.13;;;19.30;99.90;;;;;;5092892;28;20237;-39
2022/10/27 08:39:08;;;;;;;2.80;1.10;;;19.50;99.90;;;;;;5091970;28;20184;-38
2022/10/27 08:41:46;;;;;;;2.63;1.50;;;19.50;99.90;;;;;;5092589;28;20417;-38
2022/10/27 08:44:21;;;;;;;6.43;1.60;;;19.60;99.90;;;;;;5092099;28;20802;-38
2022/10/27 08:46:50;;;;;;;3.73;1.53;;;19.60;99.90;;;;;;5092507;28;20850;-38
2022/10/27 08:49:40;;;;;;;2.23;1.20;;;19.70;99.90;;;;;;5091808;28;20450;-38
2022/10/27 08:52:19;;;;;;;4.30;1.40;;;19.90;99.90;;;;;;5092399;28;20450;-38
2022/10/27 08:54:50;;;;;;;2.67;1.23;;;20.00;99.90;;;;;;5092011;28;20761;-38
2022/10/27 08:57:27;;;;;;;1.83;1.40;;;20.10;99.90;;;;;;5090805;28;20411;-37
2022/10/27 08:59:54;;;;;;;4.03;1.27;;;20.30;99.90;;;;;;5091856;28;20501;-38
2022/10/27 09:02:51;;;;;;;1.87;1.00;;;20.30;99.90;;;;;;5092057;28;20410;-39
2022/10/27 09:05:38;;;;;;;3.50;1.23;;;20.40;99.90;;;;;;5091700;28;20418;-40
2022/10/27 09:08:24;;;;;;;1.37;0.73;;;20.50;99.90;;;;;;5091985;28;20421;-39
2022/10/27 09:11:33;;;;;;;4.47;1.27;;;20.50;99.90;;;;;;5091913;28;20515;-38
2022/10/27 09:14:26;;;;;;;1.77;1.10;;;20.70;99.90;;;;;;5057514;28;20494;-38
2022/10/27 09:16:58;;;;;;;3.00;0.90;;;20.80;99.90;;;;;;5091883;28;20417;-38
2022/10/27 09:19:40;;;;;;;1.27;0.77;;;20.90;99.90;;;;;;5091498;28;20931;-38
2022/10/27 09:22:13;;;;;;;1.30;0.93;;;21.00;99.90;;;;;;5091287;28;20425;-38
2022/10/27 09:24:39;;;;;;;2.13;1.07;;;21.00;99.90;;;;;;5090614;28;20415;-38
2022/10/27 09:27:08;;;;;;;2.23;1.00;;;21.00;99.90;;;;;;5091603;28;20452;-41
2022/10/27 09:29:36;;;;;;;2.53;0.90;;;21.00;99.90;;;;;;5091270;28;20706;-38
2022/10/27 09:32:16;;;;;;;1.33;0.87;;;21.00;99.90;;;;;;5091433;28;20458;-38
2022/10/27 09:35:16;;;;;;;2.10;0.80;;;21.00;99.90;;;;;;5091116;28;20495;-40
2022/10/27 09:37:41;;;;;;;2.00;0.93;;;21.00;99.90;;;;;;5091310;28;20502;-40
2022/10/27 09:40:17;;;;;;;3.50;1.10;;;21.10;99.90;;;;;;5091097;28;20486;-39
2022/10/27 09:42:44;;;;;;;2.40;1.00;;;20.90;99.90;;;;;;5090818;28;20655;-38
2022/10/27 09:45:16;;;;;;;1.70;0.70;;;21.00;99.90;;;;;;5091039;28;20411;-38
2022/10/27 09:47:45;;;;;;;1.50;1.00;;;21.10;99.90;;;;;;5091051;28;21274;-38
2022/10/27 09:50:38;;;;;;;5.03;1.13;;;21.20;99.90;;;;;;5090888;28;20902;-38
2022/10/27 09:53:04;;;;;;;1.93;1.00;;;21.20;99.90;;;;;;5090746;28;20414;-38
2022/10/27 09:55:50;;;;;;;1.63;0.87;;;21.30;99.90;;;;;;5089272;28;20425;-38
2022/10/27 09:58:17;;;;;;;2.90;1.00;;;21.40;99.90;;;;;;5089581;28;20176;-38
2022/10/27 10:00:43;;;;;;;4.33;1.73;;;21.40;99.90;;;;;;5090781;28;20402;-38
2022/10/27 10:03:20;;;;;;;8.33;1.30;;;21.40;99.90;;;;;;5090414;28;20460;-40
2022/10/27 10:06:00;;;;;;;2.23;1.20;;;21.50;99.90;;;;;;5090491;28;20445;-38
2022/10/27 10:08:29;;;;;;;3.60;1.20;;;21.50;99.90;;;;;;5090297;28;20413;-40
2022/10/27 10:11:00;;;;;;;1.70;1.10;;;21.50;99.90;;;;;;5090764;28;20443;-39
2022/10/27 10:13:29;;;;;;;2.30;1.20;;;21.40;99.90;;;;;;5090203;28;20959;-38
2022/10/27 10:16:10;;;;;;;5.53;1.27;;;21.40;99.90;;;;;;5089479;28;20760;-41
2022/10/27 10:18:42;;;;;;;7.00;1.50;;;21.40;99.90;;;;;;5090351;28;20799;-38
2022/10/27 10:21:10;;;;;;;1.50;0.90;;;21.40;99.90;;;;;;5090561;28;20426;-38
2022/10/27 10:23:46;;;;;;;1.77;1.07;;;21.40;99.90;;;;;;5090130;28;20437;-40
2022/10/27 10:26:18;;;;;;;2.13;1.00;;;21.40;99.90;;;;;;5090738;28;20513;-40
2022/10/27 10:28:45;;;;;;;2.47;1.10;;;21.30;99.90;;;;;;5089855;28;20476;-40
2022/10/27 10:31:20;;;;;;;5.67;1.57;;;21.20;99.90;;;;;;5090464;28;20827;-38
2022/10/27 10:33:47;;;;;;;2.00;1.20;;;21.20;99.90;;;;;;5090176;28;20410;-40
2022/10/27 10:36:23;;;;;;;1.80;1.33;;;21.10;99.90;;;;;;5090537;28;20410;-39
2022/10/27 10:38:55;;;;;;;2.40;1.30;;;21.00;99.90;;;;;;5089855;28;20472;-37
2022/10/27 10:41:22;;;;;;;5.50;1.47;;;21.00;99.90;;;;;;5090174;28;20418;-38
2022/10/27 10:44:14;;;;;;;5.77;2.10;;;20.90;99.90;;;;;;5089887;28;20414;-41
2022/10/27 10:46:55;;;;;;;3.33;1.90;;;20.90;99.90;;;;;;5089149;28;20420;-39
2022/10/27 10:49:31;;;;;;;3.80;1.83;;;20.80;99.90;;;;;;5089636;28;20449;-37
2022/10/27 10:52:01;;;;;;;2.77;1.27;;;20.70;99.90;;;;;;5090102;28;20464;-38
2022/10/27 10:54:45;;;;;;;2.53;1.50;;;20.70;99.90;;;;;;5089778;28;20444;-40
2022/10/27 10:57:35;;;;;;;2.43;1.20;;;20.70;99.90;;;;;;5088652;28;20411;-40
2022/10/27 11:00:04;;;;;;;6.50;1.60;;;20.70;99.90;;;;;;5082912;28;20916;-39
2022/10/27 11:02:31;;;;;;;4.50;1.53;;;20.70;99.90;;;;;;5089946;28;20422;-38
2022/10/27 11:05:10;;;;;;;4.13;1.47;;;20.70;99.90;;;;;;5090023;28;20425;-38
2022/10/27 11:07:36;;;;;;;4.53;1.80;;;20.80;99.90;;;;;;5090068;28;20826;-38
2022/10/27 11:10:10;;;;;;;3.13;1.60;;;20.80;99.90;;;;;;5089696;28;20864;-40
2022/10/27 11:12:42;;;;;;;2.87;1.57;;;20.80;99.90;;;;;;5088544;28;20410;-39
2022/10/27 11:15:28;;;;;;;1.97;1.43;;;20.80;99.90;;;;;;5089893;28;20399;-38
2022/10/27 11:17:58;;;;;;;2.70;1.47;;;20.90;99.90;;;;;;5089952;28;20399;-38
2022/10/27 11:20:34;;;;;;;5.30;1.70;;;20.90;99.90;;;;;;5089429;28;20483;-39
2022/10/27 11:23:08;;;;;;;1.57;1.37;;;21.00;99.90;;;;;;5089436;28;20406;-39
2022/10/27 11:25:36;;;;;;;1.97;1.40;;;21.00;99.90;;;;;;5089858;28;20464;-39
2022/10/27 11:28:15;;;;;;;2.33;1.70;;;21.00;99.90;;;;;;5089931;28;20418;-40
2022/10/27 11:30:59;;;;;;;3.70;1.60;;;21.10;99.90;;;;;;5089446;28;20576;-40
2022/10/27 11:33:31;;;;;;;3.27;1.50;;;21.20;99.90;;;;;;5089416;28;20451;-38
2022/10/27 11:36:23;;;;;;;4.00;1.40;;;21.20;99.90;;;;;;5089809;28;20409;-40
2022/10/27 11:39:19;;;;;;;3.20;1.40;;;21.30;99.90;;;;;;5089482;28;20399;-42
2022/10/27 11:41:55;;;;;;;2.87;1.43;;;21.40;99.90;;;;;;5089432;28;20406;-39
2022/10/27 11:44:30;;;;;;;4.40;1.50;;;21.40;99.90;;;;;;5089409;28;20414;-39
2022/10/27 11:47:38;;;;;;;2.07;1.87;;;21.60;99.90;;;;;;5089659;28;20965;-40
2022/10/27 11:50:14;;;;;;;5.70;1.63;;;21.70;99.90;;;;;;5092849;28;20424;-42
2022/10/27 11:52:47;;;;;;;3.47;1.50;;;21.70;99.90;;;;;;5093203;28;20508;-39
2022/10/27 11:55:17;;;;;;;6.00;1.80;;;21.90;99.90;;;;;;5092572;28;20430;-40
2022/10/27 11:58:05;;;;;;;7.87;1.93;;;21.80;99.90;;;;;;5093351;28;20423;-38
2022/10/27 12:00:48;;;;;;;3.90;1.30;;;21.90;99.90;;;;;;5092860;28;20468;-39
2022/10/27 12:03:32;;;;;;;3.77;1.70;;;21.80;99.90;;;;;;5092886;28;20418;-43
2022/10/27 12:06:08;;;;;;;3.47;1.73;;;22.00;99.90;;;;;;5093179;28;20828;-38
2022/10/27 12:08:45;;;;;;;3.13;1.60;;;22.00;99.90;;;;;;5092646;28;20959;-41
2022/10/27 12:11:21;;;;;;;4.37;1.83;;;22.10;99.90;;;;;;5093136;28;20536;-39
2022/10/27 12:13:54;;;;;;;5.40;1.87;;;22.10;99.90;;;;;;5092642;28;20488;-40
2022/10/27 12:17:00;;;;;;;1.87;1.70;;;22.10;99.90;;;;;;5093064;28;20482;-40
2022/10/27 12:19:37;;;;;;;3.57;1.60;;;22.10;99.90;;;;;;5091032;28;20407;-39
2022/10/27 12:22:14;;;;;;;5.97;1.80;;;22.10;99.90;;;;;;5092825;28;20419;-41
2022/10/27 12:25:25;;;;;;;1.53;1.27;;;22.10;99.90;;;;;;5092577;28;20421;-40
2022/10/27 12:27:56;;;;;;;3.90;2.00;;;22.10;99.90;;;;;;5049510;28;20408;-40
2022/10/27 12:30:23;;;;;;;5.63;1.60;;;22.00;99.90;;;;;;5049380;28;20540;-38
2022/10/27 12:33:02;;;;;;;3.80;1.87;;;22.00;99.90;;;;;;5071270;28;20836;-39
2022/10/27 12:35:42;;;;;;;3.23;1.47;;;22.00;99.90;;;;;;5092773;28;20456;-40
2022/10/27 12:38:18;;;;;;;2.70;1.63;;;22.00;99.90;;;;;;5092613;28;21089;-40
2022/10/27 12:41:22;;;;;;;3.00;2.03;;;22.10;99.90;;;;;;5092375;28;20954;-38
2022/10/27 12:43:56;;;;;;;4.33;1.73;;;22.00;99.90;;;;;;5092116;28;20422;-39
2022/10/27 12:46:40;;;;;;;4.00;1.87;;;22.10;99.90;;;;;;5092393;28;20494;-39
2022/10/27 12:49:14;;;;;;;3.83;1.80;;;22.00;99.90;;;;;;5091846;28;20935;-39
2022/10/27 12:51:49;;;;;;;3.00;1.70;;;21.90;99.90;;;;;;5092464;28;20449;-40
2022/10/27 12:54:30;;;;;;;5.90;1.97;;;21.90;99.90;;;;;;5091947;28;20477;-40
2022/10/27 12:57:45;;;;;;;4.17;2.00;;;21.90;99.90;;;;;;5091403;28;20908;-41
2022/10/27 13:00:12;;;;;;;7.00;1.80;;;21.90;99.90;;;;;;5030700;28;20428;-38
2022/10/27 13:03:05;;;;;;;3.57;1.70;;;22.00;99.90;;;;;;5087530;28;20917;-38
2022/10/27 13:06:01;;;;;;;4.97;2.23;;;22.00;99.90;;;;;;5091888;28;21065;-38
2022/10/27 13:08:51;;;;;;;4.47;1.83;;;22.00;99.90;;;;;;5091684;28;20398;-38
2022/10/27 13:11:22;;;;;;;6.70;2.07;;;22.00;99.90;;;;;;5091712;28;20725;-41